createdAt,value
2024-04-24T00:01:22.685Z,68.06
2024-04-24T00:03:47.963Z,73.13
2024-04-24T00:06:13.471Z,70.26
2024-04-24T00:08:38.630Z,71.10
2024-04-24T00:11:04.012Z,72.68
2024-04-24T00:13:29.318Z,71.51
2024-04-24T00:15:52.090Z,71.31
2024-04-24T00:18:20.116Z,72.98
2024-04-24T00:20:45.528Z,72.68
2024-04-24T00:23:10.735Z,70.62
2024-04-24T00:25:36.658Z,68.14
2024-04-24T00:28:01.863Z,70.39
2024-04-24T00:30:27.275Z,69.30
2024-04-24T00:32:52.612Z,69.00
2024-04-24T00:35:20.747Z,70.45
2024-04-24T00:37:46.106Z,69.43
2024-04-24T00:40:13.513Z,67.58
2024-04-24T00:42:38.999Z,67.62
2024-04-24T00:45:04.395Z,69.35
2024-04-24T00:47:30.978Z,67.58
2024-04-24T00:49:56.714Z,70.33
2024-04-24T00:52:24.614Z,68.12
2024-04-24T00:54:50.217Z,67.78
2024-04-24T00:57:15.756Z,69.88
2024-04-24T00:59:41.374Z,68.16
2024-04-24T01:02:06.899Z,69.52
2024-04-24T01:04:32.439Z,70.92
2024-04-24T01:06:57.703Z,70.38
2024-04-24T01:09:25.598Z,70.94
2024-04-24T01:11:50.935Z,68.33
2024-04-24T01:14:16.461Z,71.63
2024-04-24T01:16:43.903Z,71.98
2024-04-24T01:19:17.593Z,72.22
2024-04-24T01:21:53.033Z,71.15
2024-04-24T01:24:29.386Z,71.56
2024-04-24T01:26:58.719Z,71.89
2024-04-24T01:29:24.018Z,70.84
2024-04-24T01:31:49.317Z,69.70
2024-04-24T01:34:14.611Z,71.11
2024-04-24T01:36:39.817Z,70.78
2024-04-24T01:39:05.960Z,72.14
2024-04-24T01:41:31.310Z,69.81
2024-04-24T01:43:59.267Z,69.70
2024-04-24T01:46:24.530Z,69.47
2024-04-24T01:48:49.872Z,72.67
2024-04-24T01:51:12.526Z,72.08
2024-04-24T01:53:38.051Z,72.71
2024-04-24T01:56:00.815Z,69.42
2024-04-24T01:58:26.045Z,72.44
2024-04-24T02:00:53.925Z,73.27
2024-04-24T02:03:19.289Z,70.71
2024-04-24T02:05:44.500Z,70.03
2024-04-24T02:08:10.385Z,72.44
2024-04-24T02:10:35.684Z,70.75
2024-04-24T02:13:00.966Z,72.45
2024-04-24T02:15:26.193Z,70.47
2024-04-24T02:17:54.289Z,69.75
2024-04-24T02:20:19.721Z,68.58
2024-04-24T02:22:45.095Z,71.42
2024-04-24T02:25:26.561Z,68.99
2024-04-24T02:27:51.801Z,71.45
2024-04-24T02:30:17.133Z,67.89
2024-04-24T02:32:42.537Z,64.10
2024-04-24T02:35:10.783Z,65.40
2024-04-24T02:37:39.134Z,65.52
2024-04-24T02:40:04.930Z,65.25
2024-04-24T02:42:30.400Z,64.99
2024-04-24T02:44:55.680Z,64.46
2024-04-24T02:47:21.026Z,62.56
2024-04-24T02:49:46.535Z,63.85
2024-04-24T02:52:11.845Z,61.15
2024-04-24T02:54:36.994Z,61.97
2024-04-24T02:57:02.374Z,62.83
2024-04-24T02:59:27.765Z,59.70
2024-04-24T03:01:53.255Z,59.77
2024-04-24T03:04:18.564Z,61.33
2024-04-24T03:06:45.958Z,60.33
2024-04-24T03:09:13.861Z,60.26
2024-04-24T03:11:41.653Z,61.53
2024-04-24T03:14:07.065Z,60.56
2024-04-24T03:16:33.589Z,61.30
2024-04-24T03:18:58.774Z,61.35
2024-04-24T03:21:22.394Z,60.69
2024-04-24T03:23:47.560Z,62.36
2024-04-24T03:26:15.481Z,61.95
2024-04-24T03:28:41.778Z,60.38
2024-04-24T03:31:07.311Z,63.40
2024-04-24T03:33:32.483Z,63.29
2024-04-24T03:35:57.665Z,62.12
2024-04-24T03:38:22.957Z,61.15
2024-04-24T03:40:45.595Z,63.59
2024-04-24T03:43:14.158Z,63.75
2024-04-24T03:45:36.814Z,62.27
2024-04-24T03:48:02.203Z,63.31
2024-04-24T03:50:27.642Z,63.41
2024-04-24T03:52:52.847Z,61.86
2024-04-24T03:55:18.116Z,62.51
2024-04-24T03:57:43.362Z,64.46
2024-04-24T04:00:12.990Z,64.88
2024-04-24T04:02:38.344Z,65.00
2024-04-24T04:05:03.649Z,64.23
2024-04-24T04:07:29.039Z,66.02
2024-04-24T04:09:54.311Z,64.50
2024-04-24T04:12:19.616Z,63.62
2024-04-24T04:14:44.863Z,63.64
2024-04-24T04:17:12.815Z,61.80
2024-04-24T04:19:38.105Z,62.76
2024-04-24T04:22:03.320Z,63.00
2024-04-24T04:24:28.490Z,63.90
2024-04-24T04:26:53.786Z,62.76
2024-04-24T04:29:19.096Z,61.32
2024-04-24T04:31:44.400Z,61.96
2024-04-24T04:34:12.268Z,62.34
2024-04-24T04:36:37.986Z,61.70
2024-04-24T04:39:03.530Z,62.26
2024-04-24T04:41:28.715Z,60.47
2024-04-24T04:43:55.255Z,61.22
2024-04-24T04:46:20.647Z,61.59
2024-04-24T04:48:46.112Z,58.58
2024-04-24T04:51:14.259Z,58.76
2024-04-24T04:53:39.733Z,60.87
2024-04-24T04:56:05.000Z,59.45
2024-04-24T04:58:30.236Z,59.94
2024-04-24T05:00:55.503Z,57.71
2024-04-24T05:03:20.869Z,59.94
2024-04-24T05:05:46.096Z,59.23
2024-04-24T05:08:14.073Z,60.87
2024-04-24T05:10:39.300Z,59.52
2024-04-24T05:13:04.545Z,59.66
2024-04-24T05:15:27.173Z,58.11
2024-04-24T05:17:52.586Z,59.27
2024-04-24T05:20:18.119Z,57.69
2024-04-24T05:22:51.994Z,59.02
2024-04-24T05:25:22.918Z,59.36
2024-04-24T05:28:03.943Z,59.26
2024-04-24T05:30:31.059Z,61.29
2024-04-24T05:32:56.294Z,57.78
2024-04-24T05:35:21.720Z,57.73
2024-04-24T05:37:47.007Z,58.34
2024-04-24T05:40:12.823Z,56.93
2024-04-24T05:42:40.717Z,57.53
2024-04-24T05:45:06.195Z,56.95
2024-04-24T05:47:28.887Z,55.81
2024-04-24T05:49:55.190Z,55.49
2024-04-24T05:52:20.457Z,57.15
2024-04-24T05:54:45.714Z,55.50
2024-04-24T05:57:12.994Z,55.40
2024-04-24T05:59:41.074Z,56.48
2024-04-24T06:02:06.353Z,56.16
2024-04-24T06:04:31.959Z,56.13
2024-04-24T06:06:57.166Z,56.54
2024-04-24T06:09:22.590Z,56.87
2024-04-24T06:11:47.848Z,55.83
2024-04-24T06:14:13.344Z,56.54
2024-04-24T06:16:41.231Z,56.80
2024-04-24T06:19:06.648Z,54.55
2024-04-24T06:21:32.762Z,54.77
2024-04-24T06:23:55.381Z,55.88
2024-04-24T06:26:21.063Z,56.43
2024-04-24T06:28:46.454Z,56.18
2024-04-24T06:31:11.691Z,54.70
2024-04-24T06:33:39.790Z,54.11
2024-04-24T06:36:08.099Z,54.45
2024-04-24T06:38:33.391Z,53.22
2024-04-24T06:40:58.643Z,52.50
2024-04-24T06:43:23.927Z,52.00
2024-04-24T06:45:49.538Z,54.63
2024-04-24T06:48:15.223Z,53.36
2024-04-24T06:50:43.927Z,53.76
2024-04-24T06:53:09.334Z,53.58
2024-04-24T06:55:34.898Z,51.10
2024-04-24T06:58:00.158Z,53.14
2024-04-24T07:00:26.175Z,51.03
2024-04-24T07:02:51.436Z,51.04
2024-04-24T07:05:17.059Z,50.49
2024-04-24T07:07:45.015Z,51.13
2024-04-24T07:10:11.127Z,51.35
2024-04-24T07:12:36.475Z,50.94
2024-04-24T07:15:01.795Z,52.57
2024-04-24T07:17:27.231Z,50.16
2024-04-24T07:19:52.923Z,50.01
2024-04-24T07:22:18.194Z,49.64
2024-04-24T07:24:46.085Z,50.21
2024-04-24T07:27:12.154Z,51.64
2024-04-24T07:29:38.122Z,51.21
2024-04-24T07:32:03.488Z,51.14
2024-04-24T07:34:28.686Z,50.37
2024-04-24T07:36:53.991Z,49.38
2024-04-24T07:39:19.326Z,49.84
2024-04-24T07:41:47.335Z,47.43
2024-04-24T07:44:12.617Z,48.93
2024-04-24T07:46:37.996Z,47.66
2024-04-24T07:49:03.233Z,46.88
2024-04-24T07:51:28.597Z,47.38
2024-04-24T07:53:53.804Z,45.96
2024-04-24T07:56:19.244Z,48.43
2024-04-24T07:58:47.146Z,47.79
2024-04-24T08:01:12.610Z,46.61
2024-04-24T08:03:36.436Z,45.91
2024-04-24T08:06:01.825Z,45.67
2024-04-24T08:08:27.128Z,45.61
2024-04-24T08:10:52.713Z,47.15
2024-04-24T08:13:20.413Z,45.73
2024-04-24T08:15:48.411Z,45.57
2024-04-24T08:18:13.777Z,45.00
2024-04-24T08:20:39.223Z,43.09
2024-04-24T08:23:04.462Z,45.01
2024-04-24T08:25:29.793Z,42.76
2024-04-24T08:27:55.124Z,43.25
2024-04-24T08:30:20.454Z,44.24
2024-04-24T08:32:48.517Z,43.32
2024-04-24T08:35:15.657Z,44.87
2024-04-24T08:37:40.946Z,47.01
2024-04-24T08:40:06.821Z,45.51
2024-04-24T08:42:32.498Z,43.25
2024-04-24T08:45:01.966Z,44.19
2024-04-24T08:47:27.633Z,43.09
2024-04-24T08:49:55.875Z,43.45
2024-04-24T08:52:25.419Z,42.42
2024-04-24T08:54:55.891Z,43.11
2024-04-24T08:57:22.277Z,44.92
2024-04-24T08:59:51.106Z,42.62
2024-04-24T09:02:17.738Z,45.02
2024-04-24T09:04:46.302Z,43.64
2024-04-24T09:07:18.395Z,44.22
2024-04-24T09:09:46.519Z,43.26
2024-04-24T09:12:12.927Z,43.78
2024-04-24T09:14:39.218Z,45.08
2024-04-24T09:17:06.755Z,42.19
2024-04-24T09:19:32.895Z,43.95
2024-04-24T09:21:58.251Z,43.63
2024-04-24T09:24:26.252Z,44.19
2024-04-24T09:26:49.842Z,46.19
2024-04-24T09:29:15.309Z,43.27
2024-04-24T09:31:42.272Z,44.60
2024-04-24T09:34:07.485Z,45.07
2024-04-24T09:36:34.046Z,44.84
2024-04-24T09:38:56.848Z,44.15
2024-04-24T09:41:24.854Z,42.79
2024-04-24T09:43:50.359Z,42.36
2024-04-24T09:46:18.933Z,44.31
2024-04-24T09:48:44.400Z,41.15
2024-04-24T09:51:11.762Z,43.09
2024-04-24T09:53:37.346Z,43.20
2024-04-24T09:56:05.590Z,44.22
2024-04-24T09:58:39.335Z,45.20
2024-04-24T10:01:07.138Z,42.99
2024-04-24T10:03:38.218Z,44.39
2024-04-24T10:06:06.639Z,43.97
2024-04-24T10:08:36.296Z,44.08
2024-04-24T10:11:05.908Z,44.99
2024-04-24T10:13:37.577Z,44.41
2024-04-24T10:16:04.211Z,47.25
2024-04-24T10:18:30.998Z,43.15
2024-04-24T10:20:59.358Z,40.69
2024-04-24T10:23:25.186Z,40.46
2024-04-24T10:25:51.509Z,43.49
2024-04-24T10:28:18.751Z,42.81
2024-04-24T10:30:48.101Z,45.51
2024-04-24T10:33:13.926Z,42.76
2024-04-24T10:35:39.810Z,41.24
2024-04-24T10:38:10.334Z,42.77
2024-04-24T10:40:36.168Z,42.78
2024-04-24T10:43:02.278Z,41.95
2024-04-24T10:45:27.956Z,40.30
2024-04-24T10:47:56.586Z,43.17
2024-04-24T10:50:22.419Z,42.02
2024-04-24T10:52:51.430Z,39.83
2024-04-24T10:55:19.597Z,40.88
2024-04-24T10:57:49.805Z,43.47
2024-04-24T11:00:18.383Z,43.25
2024-04-24T11:02:44.464Z,40.62
2024-04-24T11:05:13.587Z,41.06
2024-04-24T11:07:39.151Z,41.39
2024-04-24T11:10:04.703Z,42.11
2024-04-24T11:12:30.139Z,41.22
2024-04-24T11:14:55.414Z,42.91
2024-04-24T11:17:20.700Z,40.67
2024-04-24T11:19:46.008Z,40.95
2024-04-24T11:22:13.981Z,41.09
2024-04-24T11:24:41.358Z,40.91
2024-04-24T11:27:07.307Z,42.64
2024-04-24T11:29:41.430Z,41.23
2024-04-24T11:32:08.541Z,40.29
2024-04-24T11:34:34.027Z,43.33
2024-04-24T11:36:59.338Z,43.35
2024-04-24T11:39:27.450Z,43.32
2024-04-24T11:41:53.672Z,40.29
2024-04-24T11:44:19.157Z,42.44
2024-04-24T11:46:44.624Z,41.52
2024-04-24T11:49:10.340Z,41.21
2024-04-24T11:51:37.659Z,41.86
2024-04-24T11:54:04.143Z,41.82
2024-04-24T11:56:38.297Z,38.86
2024-04-24T11:59:04.588Z,36.76
2024-04-24T12:01:30.060Z,38.14
2024-04-24T12:03:52.864Z,39.63
2024-04-24T12:06:18.148Z,37.75
2024-04-24T12:08:43.753Z,39.61
2024-04-24T12:11:09.040Z,37.27
2024-04-24T12:13:39.136Z,37.73
2024-04-24T12:16:06.526Z,38.51
2024-04-24T12:18:33.501Z,38.84
2024-04-24T12:21:01.904Z,39.21
2024-04-24T12:23:30.165Z,38.53
2024-04-24T12:25:55.885Z,40.42
2024-04-24T12:28:21.238Z,39.35
2024-04-24T12:30:49.172Z,40.55
2024-04-24T12:33:14.539Z,39.95
2024-04-24T12:35:40.191Z,39.71
2024-04-24T12:38:05.488Z,39.08
2024-04-24T12:40:31.854Z,39.55
2024-04-24T12:42:57.071Z,40.01
2024-04-24T12:45:22.295Z,40.29
2024-04-24T12:47:50.294Z,41.49
2024-04-24T12:50:15.721Z,38.00
2024-04-24T12:52:41.315Z,40.47
2024-04-24T12:55:06.894Z,43.11
2024-04-24T12:57:32.098Z,42.98
2024-04-24T12:59:54.815Z,43.00
2024-04-24T13:02:20.292Z,40.65
2024-04-24T13:04:49.178Z,41.01
2024-04-24T13:07:15.255Z,43.52
2024-04-24T13:09:40.444Z,41.07
2024-04-24T13:12:05.996Z,40.02
2024-04-24T13:14:31.301Z,42.02
2024-04-24T13:16:57.516Z,40.37
2024-04-24T13:19:23.112Z,40.25
2024-04-24T13:21:52.366Z,41.77
2024-04-24T13:24:18.898Z,42.78
2024-04-24T13:26:41.836Z,42.23
2024-04-24T13:29:07.769Z,44.09
2024-04-24T13:31:33.963Z,45.67
2024-04-24T13:33:56.835Z,42.45
2024-04-24T13:36:22.680Z,42.67
2024-04-24T13:38:50.635Z,43.01
2024-04-24T13:41:17.464Z,44.10
2024-04-24T13:43:42.718Z,43.69
2024-04-24T13:46:08.128Z,42.28
2024-04-24T13:48:35.302Z,41.02
2024-04-24T13:51:01.690Z,42.29
2024-04-24T13:53:27.146Z,41.85
2024-04-24T13:55:55.835Z,44.34
2024-04-24T13:58:21.058Z,44.25
2024-04-24T14:00:46.308Z,42.31
2024-04-24T14:03:11.555Z,42.62
2024-04-24T14:05:36.894Z,40.79
2024-04-24T14:08:02.278Z,42.10
2024-04-24T14:10:27.599Z,42.26
2024-04-24T14:12:55.609Z,40.71
2024-04-24T14:15:21.717Z,42.13
2024-04-24T14:17:46.973Z,42.39
2024-04-24T14:20:12.931Z,44.31
2024-04-24T14:22:38.801Z,41.75
2024-04-24T14:25:04.020Z,41.37
2024-04-24T14:27:29.213Z,41.86
2024-04-24T14:29:57.125Z,42.30
2024-04-24T14:32:22.422Z,43.47
2024-04-24T14:34:50.014Z,43.67
2024-04-24T14:37:15.292Z,45.18
2024-04-24T14:39:40.957Z,43.15
2024-04-24T14:42:06.332Z,43.79
2024-04-24T14:44:31.701Z,44.85
2024-04-24T14:46:59.811Z,43.45
2024-04-24T14:49:25.639Z,44.42
2024-04-24T14:51:51.034Z,44.00
2024-04-24T14:54:16.328Z,43.66
2024-04-24T14:56:41.480Z,44.51
2024-04-24T14:59:08.668Z,43.78
2024-04-24T15:01:34.002Z,44.84
2024-04-24T15:04:01.909Z,45.07
2024-04-24T15:06:27.235Z,45.61
2024-04-24T15:08:52.484Z,45.40
2024-04-24T15:11:17.804Z,46.18
2024-04-24T15:13:43.599Z,46.30
2024-04-24T15:16:09.232Z,45.94
2024-04-24T15:18:36.590Z,45.70
2024-04-24T15:21:04.555Z,46.29
2024-04-24T15:23:30.320Z,43.93
2024-04-24T15:25:55.671Z,45.55
2024-04-24T15:28:20.925Z,45.87
2024-04-24T15:30:46.173Z,45.40
2024-04-24T15:33:11.685Z,46.32
2024-04-24T15:35:37.258Z,46.76
2024-04-24T15:38:05.250Z,48.35
2024-04-24T15:40:30.590Z,47.89
2024-04-24T15:42:55.834Z,47.71
2024-04-24T15:45:21.261Z,47.11
2024-04-24T15:47:46.932Z,46.57
2024-04-24T15:50:12.549Z,48.19
2024-04-24T15:52:38.476Z,48.11
2024-04-24T15:55:06.987Z,48.60
2024-04-24T15:57:32.201Z,47.00
2024-04-24T15:59:57.423Z,47.62
2024-04-24T16:02:22.668Z,47.53
2024-04-24T16:04:47.936Z,47.28
2024-04-24T16:07:13.988Z,49.83
2024-04-24T16:09:36.536Z,51.73
2024-04-24T16:12:04.383Z,56.08
2024-04-24T16:14:29.767Z,58.44
2024-04-24T16:16:55.252Z,60.77
2024-04-24T16:19:20.573Z,64.81
2024-04-24T16:21:45.898Z,65.02
2024-04-24T16:24:12.116Z,65.04
2024-04-24T16:26:37.365Z,68.79
2024-04-24T16:29:05.372Z,67.25
2024-04-24T16:31:30.733Z,66.83
2024-04-24T16:33:53.500Z,68.71
2024-04-24T16:36:18.812Z,67.41
2024-04-24T16:38:44.074Z,66.27
2024-04-24T16:41:09.329Z,68.35
2024-04-24T16:43:34.540Z,67.71
2024-04-24T16:46:02.388Z,67.48
2024-04-24T16:48:28.630Z,67.79
2024-04-24T16:50:54.085Z,67.97
2024-04-24T16:53:19.378Z,67.02
2024-04-24T16:55:46.945Z,65.41
2024-04-24T16:58:12.634Z,65.59
2024-04-24T17:00:37.893Z,68.23
2024-04-24T17:03:05.850Z,66.34
2024-04-24T17:05:31.094Z,66.91
2024-04-24T17:07:56.300Z,65.31
2024-04-24T17:10:21.526Z,65.04
2024-04-24T17:12:46.733Z,62.14
2024-04-24T17:15:12.204Z,62.48
2024-04-24T17:17:37.656Z,64.27
2024-04-24T17:20:05.922Z,61.94
2024-04-24T17:22:28.671Z,60.75
2024-04-24T17:24:54.027Z,61.70
2024-04-24T17:27:19.290Z,60.56
2024-04-24T17:29:44.631Z,60.57
2024-04-24T17:32:10.703Z,61.11
2024-04-24T17:34:36.138Z,60.32
2024-04-24T17:37:04.040Z,60.31
2024-04-24T17:39:29.259Z,59.71
2024-04-24T17:41:54.856Z,60.75
2024-04-24T17:44:20.162Z,58.98
2024-04-24T17:46:45.426Z,59.67
2024-04-24T17:49:12.358Z,60.75
2024-04-24T17:51:37.540Z,62.98
2024-04-24T17:54:05.495Z,62.48
2024-04-24T17:56:31.864Z,62.88
2024-04-24T17:58:57.361Z,61.67
2024-04-24T18:01:22.788Z,64.98
2024-04-24T18:03:49.347Z,62.39
2024-04-24T18:06:14.616Z,60.67
2024-04-24T18:08:39.816Z,64.08
2024-04-24T18:11:08.152Z,63.37
2024-04-24T18:13:33.488Z,63.79
2024-04-24T18:15:58.685Z,62.20
2024-04-24T18:18:24.098Z,62.56
2024-04-24T18:20:49.639Z,63.17
2024-04-24T18:23:12.458Z,61.39
2024-04-24T18:25:38.129Z,63.28
2024-04-24T18:28:06.254Z,62.12
2024-04-24T18:30:31.545Z,61.10
2024-04-24T18:32:57.771Z,61.32
2024-04-24T18:35:23.242Z,61.06
2024-04-24T18:37:48.701Z,62.63
2024-04-24T18:40:15.802Z,62.49
2024-04-24T18:42:41.169Z,64.12
2024-04-24T18:45:10.048Z,62.33
2024-04-24T18:47:38.531Z,61.56
2024-04-24T18:50:05.802Z,64.80
2024-04-24T18:52:31.140Z,63.43
2024-04-24T18:54:56.429Z,64.02
2024-04-24T18:57:21.909Z,63.09
2024-04-24T18:59:47.150Z,62.56
2024-04-24T19:02:15.019Z,62.43
2024-04-24T19:04:40.177Z,63.76
2024-04-24T19:07:05.516Z,63.55
2024-04-24T19:09:30.854Z,63.86
2024-04-24T19:11:59.441Z,65.24
2024-04-24T19:14:25.300Z,65.12
2024-04-24T19:16:51.645Z,64.56
2024-04-24T19:19:19.793Z,66.73
2024-04-24T19:21:42.332Z,65.26
2024-04-24T19:24:07.973Z,65.45
2024-04-24T19:26:33.188Z,66.45
2024-04-24T19:28:58.446Z,67.76
2024-04-24T19:31:31.444Z,67.79
2024-04-24T19:33:58.558Z,67.67
2024-04-24T19:36:27.031Z,68.20
2024-04-24T19:38:52.265Z,67.44
2024-04-24T19:41:17.618Z,66.87
2024-04-24T19:43:42.903Z,68.95
2024-04-24T19:46:11.196Z,68.13
2024-04-24T19:48:39.257Z,68.38
2024-04-24T19:51:09.433Z,71.34
2024-04-24T19:53:44.919Z,69.77
2024-04-24T19:56:11.159Z,72.21
2024-04-24T19:58:36.945Z,69.34
2024-04-24T20:01:05.260Z,70.12
2024-04-24T20:03:32.588Z,69.76
2024-04-24T20:05:57.846Z,70.31
2024-04-24T20:08:23.059Z,71.48
2024-04-24T20:10:52.705Z,69.24
2024-04-24T20:13:18.579Z,69.98
2024-04-24T20:15:43.762Z,71.69
2024-04-24T20:18:09.830Z,71.69
2024-04-24T20:20:36.844Z,71.19
2024-04-24T20:23:04.148Z,71.75
2024-04-24T20:25:29.695Z,72.92
2024-04-24T20:27:58.019Z,71.01
2024-04-24T20:30:23.431Z,71.39
2024-04-24T20:32:49.159Z,71.52
2024-04-24T20:35:15.021Z,69.14
2024-04-24T20:37:37.766Z,68.55
2024-04-24T20:40:03.248Z,70.78
2024-04-24T20:42:28.621Z,70.07
2024-04-24T20:44:57.959Z,70.16
2024-04-24T20:47:23.475Z,73.02
2024-04-24T20:49:49.004Z,71.30
2024-04-24T20:52:13.143Z,74.40
2024-04-24T20:54:40.153Z,73.98
2024-04-24T20:57:05.443Z,73.05
2024-04-24T20:59:31.015Z,73.82
2024-04-24T21:01:59.256Z,72.42
2024-04-24T21:04:25.044Z,73.76
2024-04-24T21:06:50.301Z,75.32
2024-04-24T21:09:15.555Z,74.37
2024-04-24T21:11:41.162Z,75.70
2024-04-24T21:14:06.640Z,73.11
2024-04-24T21:16:32.511Z,73.10
2024-04-24T21:19:00.578Z,74.27
2024-04-24T21:21:27.742Z,74.80
2024-04-24T21:23:54.913Z,77.06
2024-04-24T21:26:20.182Z,76.06
2024-04-24T21:28:45.461Z,76.29
2024-04-24T21:31:11.072Z,74.45
2024-04-24T21:33:36.721Z,75.43
2024-04-24T21:36:05.604Z,74.36
2024-04-24T21:38:34.986Z,73.89
2024-04-24T21:41:00.340Z,73.45
2024-04-24T21:43:27.020Z,75.94
2024-04-24T21:45:52.446Z,76.28
2024-04-24T21:48:18.584Z,73.02
2024-04-24T21:50:51.560Z,76.68
2024-04-24T21:53:19.522Z,75.25
2024-04-24T21:55:44.686Z,73.67
2024-04-24T21:58:09.895Z,73.50
2024-04-24T22:00:35.144Z,75.73
2024-04-24T22:03:00.421Z,74.24
2024-04-24T22:05:25.676Z,73.18
2024-04-24T22:07:50.993Z,74.06
2024-04-24T22:10:19.060Z,74.66
2024-04-24T22:12:44.340Z,74.97
2024-04-24T22:15:09.722Z,74.83
2024-04-24T22:17:35.148Z,73.92
2024-04-24T22:20:00.545Z,74.87
2024-04-24T22:22:25.997Z,74.49
2024-04-24T22:24:51.251Z,76.77
2024-04-24T22:27:19.154Z,75.31
2024-04-24T22:29:44.324Z,76.73
2024-04-24T22:32:10.295Z,76.56
2024-04-24T22:34:35.508Z,76.81
2024-04-24T22:37:00.826Z,76.12
2024-04-24T22:39:25.991Z,76.11
2024-04-24T22:41:51.232Z,77.49
2024-04-24T22:44:19.096Z,79.37
2024-04-24T22:46:44.414Z,77.67
2024-04-24T22:49:10.169Z,77.00
2024-04-24T22:51:35.558Z,79.69
2024-04-24T22:54:00.914Z,78.71
2024-04-24T22:56:26.656Z,80.74
2024-04-24T22:58:51.835Z,81.27
2024-04-24T23:01:23.571Z,80.55
2024-04-24T23:03:48.871Z,81.30
2024-04-24T23:06:14.099Z,79.31
2024-04-24T23:08:39.457Z,80.33
2024-04-24T23:11:04.709Z,80.11
2024-04-24T23:13:30.038Z,79.26
2024-04-24T23:15:55.502Z,79.02
2024-04-24T23:18:23.532Z,78.86
2024-04-24T23:20:48.798Z,80.47
2024-04-24T23:23:14.076Z,79.06
2024-04-24T23:25:39.275Z,78.81
2024-04-24T23:28:04.567Z,78.62
2024-04-24T23:30:29.738Z,78.60
2024-04-24T23:32:55.224Z,78.68
2024-04-24T23:35:23.291Z,79.94
2024-04-24T23:37:48.619Z,80.20
2024-04-24T23:40:14.356Z,81.11
2024-04-24T23:42:39.674Z,82.03
2024-04-24T23:45:04.885Z,82.81
2024-04-24T23:47:30.536Z,81.20
2024-04-24T23:49:55.787Z,82.32
2024-04-24T23:52:23.938Z,82.34
2024-04-24T23:54:49.091Z,80.49
2024-04-24T23:57:14.609Z,80.08
2024-04-24T23:59:39.857Z,80.17
